sensor_id;sensor_type;location;lat;lon;timestamp;P1;durP1;ratioP1;P2;durP2;ratioP2
76107;SDS011;64834;52.516;10.528;2023-05-19T00:01:35;4.88;;;2.42;;
76107;SDS011;64834;52.516;10.528;2023-05-19T00:04:02;8.07;;;2.80;;
76107;SDS011;64834;52.516;10.528;2023-05-19T00:06:29;6.07;;;2.20;;
76107;SDS011;64834;52.516;10.528;2023-05-19T00:09:00;7.03;;;3.08;;
76107;SDS011;64834;52.516;10.528;2023-05-19T00:11:33;7.93;;;2.72;;
76107;SDS011;64834;52.516;10.528;2023-05-19T00:14:00;7.45;;;2.92;;
76107;SDS011;64834;52.516;10.528;2023-05-19T00:16:27;6.95;;;2.70;;
76107;SDS011;64834;52.516;10.528;2023-05-19T00:18:53;3.67;;;2.65;;
76107;SDS011;64834;52.516;10.528;2023-05-19T00:21:18;5.30;;;2.25;;
76107;SDS011;64834;52.516;10.528;2023-05-19T00:23:44;8.05;;;2.80;;
76107;SDS011;64834;52.516;10.528;2023-05-19T00:26:10;5.72;;;2.50;;
76107;SDS011;64834;52.516;10.528;2023-05-19T00:28:35;8.45;;;2.70;;
76107;SDS011;64834;52.516;10.528;2023-05-19T00:31:01;5.35;;;2.40;;
76107;SDS011;64834;52.516;10.528;2023-05-19T00:33:28;7.90;;;2.60;;
76107;SDS011;64834;52.516;10.528;2023-05-19T00:35:53;7.93;;;2.83;;
76107;SDS011;64834;52.516;10.528;2023-05-19T00:38:19;6.25;;;2.70;;
76107;SDS011;64834;52.516;10.528;2023-05-19T00:40:44;5.53;;;2.33;;
76107;SDS011;64834;52.516;10.528;2023-05-19T00:43:09;7.60;;;3.00;;
76107;SDS011;64834;52.516;10.528;2023-05-19T00:45:35;9.98;;;2.70;;
76107;SDS011;64834;52.516;10.528;2023-05-19T00:48:00;10.40;;;3.17;;
76107;SDS011;64834;52.516;10.528;2023-05-19T00:50:26;7.70;;;2.55;;
76107;SDS011;64834;52.516;10.528;2023-05-19T00:52:53;6.78;;;2.78;;
76107;SDS011;64834;52.516;10.528;2023-05-19T00:55:25;6.65;;;3.33;;
76107;SDS011;64834;52.516;10.528;2023-05-19T00:57:52;8.75;;;3.00;;
76107;SDS011;64834;52.516;10.528;2023-05-19T01:00:19;6.53;;;2.53;;
76107;SDS011;64834;52.516;10.528;2023-05-19T01:02:45;7.93;;;2.65;;
76107;SDS011;64834;52.516;10.528;2023-05-19T01:05:10;5.70;;;2.63;;
76107;SDS011;64834;52.516;10.528;2023-05-19T01:07:36;6.18;;;2.47;;
76107;SDS011;64834;52.516;10.528;2023-05-19T01:10:02;7.25;;;3.17;;
76107;SDS011;64834;52.516;10.528;2023-05-19T01:12:28;7.45;;;2.50;;
76107;SDS011;64834;52.516;10.528;2023-05-19T01:14:53;8.82;;;3.22;;
76107;SDS011;64834;52.516;10.528;2023-05-19T01:17:23;8.43;;;3.03;;
76107;SDS011;64834;52.516;10.528;2023-05-19T01:19:59;9.20;;;2.75;;
76107;SDS011;64834;52.516;10.528;2023-05-19T01:22:45;7.38;;;3.08;;
76107;SDS011;64834;52.516;10.528;2023-05-19T01:27:52;6.85;;;3.00;;
76107;SDS011;64834;52.516;10.528;2023-05-19T01:30:41;6.15;;;2.42;;
76107;SDS011;64834;52.516;10.528;2023-05-19T01:33:11;6.78;;;3.05;;
76107;SDS011;64834;52.516;10.528;2023-05-19T01:35:38;8.25;;;3.15;;
76107;SDS011;64834;52.516;10.528;2023-05-19T01:38:07;8.35;;;2.78;;
76107;SDS011;64834;52.516;10.528;2023-05-19T01:40:33;7.90;;;2.75;;
76107;SDS011;64834;52.516;10.528;2023-05-19T01:43:00;11.82;;;3.13;;
76107;SDS011;64834;52.516;10.528;2023-05-19T01:45:27;6.85;;;2.80;;
76107;SDS011;64834;52.516;10.528;2023-05-19T01:47:54;8.57;;;3.10;;
76107;SDS011;64834;52.516;10.528;2023-05-19T01:52:46;6.10;;;2.80;;
76107;SDS011;64834;52.516;10.528;2023-05-19T01:55:11;9.85;;;3.30;;
76107;SDS011;64834;52.516;10.528;2023-05-19T02:09:03;11.60;;;2.78;;
76107;SDS011;64834;52.516;10.528;2023-05-19T02:11:52;8.13;;;2.92;;
76107;SDS011;64834;52.516;10.528;2023-05-19T02:16:59;6.90;;;2.95;;
76107;SDS011;64834;52.516;10.528;2023-05-19T02:19:28;6.88;;;2.63;;
76107;SDS011;64834;52.516;10.528;2023-05-19T02:21:56;7.28;;;2.95;;
76107;SDS011;64834;52.516;10.528;2023-05-19T02:24:22;7.00;;;3.10;;
76107;SDS011;64834;52.516;10.528;2023-05-19T02:26:50;6.43;;;2.90;;
76107;SDS011;64834;52.516;10.528;2023-05-19T02:29:17;9.57;;;3.70;;
76107;SDS011;64834;52.516;10.528;2023-05-19T02:31:42;7.18;;;2.92;;
76107;SDS011;64834;52.516;10.528;2023-05-19T02:34:08;8.20;;;2.67;;
76107;SDS011;64834;52.516;10.528;2023-05-19T02:36:34;9.27;;;3.33;;
76107;SDS011;64834;52.516;10.528;2023-05-19T02:39:00;9.07;;;2.97;;
76107;SDS011;64834;52.516;10.528;2023-05-19T02:41:29;10.88;;;3.60;;
76107;SDS011;64834;52.516;10.528;2023-05-19T02:43:54;7.00;;;3.05;;
76107;SDS011;64834;52.516;10.528;2023-05-19T02:46:20;9.07;;;3.28;;
76107;SDS011;64834;52.516;10.528;2023-05-19T02:48:45;6.45;;;3.38;;
76107;SDS011;64834;52.516;10.528;2023-05-19T02:51:10;9.02;;;3.22;;
76107;SDS011;64834;52.516;10.528;2023-05-19T02:53:36;10.82;;;2.78;;
76107;SDS011;64834;52.516;10.528;2023-05-19T02:56:01;7.70;;;3.05;;
76107;SDS011;64834;52.516;10.528;2023-05-19T02:58:27;9.15;;;3.42;;
76107;SDS011;64834;52.516;10.528;2023-05-19T03:00:52;9.02;;;2.95;;
76107;SDS011;64834;52.516;10.528;2023-05-19T03:03:17;7.97;;;3.35;;
76107;SDS011;64834;52.516;10.528;2023-05-19T03:05:43;8.40;;;2.97;;
76107;SDS011;64834;52.516;10.528;2023-05-19T03:08:08;9.07;;;3.35;;
76107;SDS011;64834;52.516;10.528;2023-05-19T03:10:34;6.22;;;3.22;;
76107;SDS011;64834;52.516;10.528;2023-05-19T03:13:00;8.73;;;3.50;;
76107;SDS011;64834;52.516;10.528;2023-05-19T03:15:25;7.40;;;2.92;;
76107;SDS011;64834;52.516;10.528;2023-05-19T03:17:50;5.55;;;2.97;;
76107;SDS011;64834;52.516;10.528;2023-05-19T03:20:16;8.23;;;3.40;;
76107;SDS011;64834;52.516;10.528;2023-05-19T03:22:41;9.05;;;3.17;;
76107;SDS011;64834;52.516;10.528;2023-05-19T03:25:07;6.95;;;3.08;;
76107;SDS011;64834;52.516;10.528;2023-05-19T03:27:33;8.32;;;3.58;;
76107;SDS011;64834;52.516;10.528;2023-05-19T03:29:58;6.88;;;3.15;;
76107;SDS011;64834;52.516;10.528;2023-05-19T03:32:23;7.40;;;3.60;;
76107;SDS011;64834;52.516;10.528;2023-05-19T03:34:49;10.30;;;3.03;;
76107;SDS011;64834;52.516;10.528;2023-05-19T03:37:17;10.18;;;3.67;;
76107;SDS011;64834;52.516;10.528;2023-05-19T03:39:43;7.07;;;3.00;;
76107;SDS011;64834;52.516;10.528;2023-05-19T03:42:08;11.10;;;4.22;;
76107;SDS011;64834;52.516;10.528;2023-05-19T03:44:33;6.60;;;2.83;;
76107;SDS011;64834;52.516;10.528;2023-05-19T03:46:58;9.63;;;3.50;;
76107;SDS011;64834;52.516;10.528;2023-05-19T03:49:24;8.02;;;3.30;;
76107;SDS011;64834;52.516;10.528;2023-05-19T03:51:49;6.68;;;3.03;;
76107;SDS011;64834;52.516;10.528;2023-05-19T03:54:15;9.43;;;3.20;;
76107;SDS011;64834;52.516;10.528;2023-05-19T03:56:40;7.53;;;3.35;;
76107;SDS011;64834;52.516;10.528;2023-05-19T03:59:06;9.45;;;3.33;;
76107;SDS011;64834;52.516;10.528;2023-05-19T04:01:32;9.30;;;3.42;;
76107;SDS011;64834;52.516;10.528;2023-05-19T04:03:57;7.22;;;3.22;;
76107;SDS011;64834;52.516;10.528;2023-05-19T04:06:23;6.88;;;3.22;;
76107;SDS011;64834;52.516;10.528;2023-05-19T04:08:48;8.25;;;3.50;;
76107;SDS011;64834;52.516;10.528;2023-05-19T04:11:13;9.68;;;3.10;;
76107;SDS011;64834;52.516;10.528;2023-05-19T04:13:39;7.38;;;3.40;;
76107;SDS011;64834;52.516;10.528;2023-05-19T04:16:04;10.45;;;3.10;;
76107;SDS011;64834;52.516;10.528;2023-05-19T04:18:30;9.23;;;3.63;;
76107;SDS011;64834;52.516;10.528;2023-05-19T04:20:55;7.00;;;3.67;;
76107;SDS011;64834;52.516;10.528;2023-05-19T04:23:21;8.90;;;3.33;;
76107;SDS011;64834;52.516;10.528;2023-05-19T04:25:46;7.72;;;3.08;;
76107;SDS011;64834;52.516;10.528;2023-05-19T04:28:12;6.63;;;3.13;;
76107;SDS011;64834;52.516;10.528;2023-05-19T04:30:38;8.93;;;3.38;;
76107;SDS011;64834;52.516;10.528;2023-05-19T04:33:04;10.27;;;3.40;;
76107;SDS011;64834;52.516;10.528;2023-05-19T04:35:31;7.65;;;2.90;;
76107;SDS011;64834;52.516;10.528;2023-05-19T04:37:57;8.25;;;3.13;;
76107;SDS011;64834;52.516;10.528;2023-05-19T04:40:22;9.50;;;3.58;;
76107;SDS011;64834;52.516;10.528;2023-05-19T04:42:48;9.07;;;3.53;;
76107;SDS011;64834;52.516;10.528;2023-05-19T04:45:16;6.13;;;2.90;;
76107;SDS011;64834;52.516;10.528;2023-05-19T04:47:42;9.73;;;3.45;;
76107;SDS011;64834;52.516;10.528;2023-05-19T04:50:07;5.35;;;3.25;;
76107;SDS011;64834;52.516;10.528;2023-05-19T04:52:34;5.05;;;3.00;;
76107;SDS011;64834;52.516;10.528;2023-05-19T04:55:00;7.15;;;3.28;;
76107;SDS011;64834;52.516;10.528;2023-05-19T04:57:25;8.55;;;3.33;;
76107;SDS011;64834;52.516;10.528;2023-05-19T04:59:50;8.18;;;3.15;;
76107;SDS011;64834;52.516;10.528;2023-05-19T05:02:16;8.93;;;3.13;;
76107;SDS011;64834;52.516;10.528;2023-05-19T05:04:41;6.68;;;3.15;;
76107;SDS011;64834;52.516;10.528;2023-05-19T05:07:08;6.35;;;2.95;;
76107;SDS011;64834;52.516;10.528;2023-05-19T05:09:33;7.70;;;2.90;;
76107;SDS011;64834;52.516;10.528;2023-05-19T05:12:00;7.85;;;3.20;;
76107;SDS011;64834;52.516;10.528;2023-05-19T05:14:25;6.60;;;3.20;;
76107;SDS011;64834;52.516;10.528;2023-05-19T05:16:51;6.55;;;3.00;;
76107;SDS011;64834;52.516;10.528;2023-05-19T05:19:17;6.18;;;2.45;;
76107;SDS011;64834;52.516;10.528;2023-05-19T05:21:42;5.05;;;2.55;;
76107;SDS011;64834;52.516;10.528;2023-05-19T05:24:08;7.55;;;2.88;;
76107;SDS011;64834;52.516;10.528;2023-05-19T05:26:34;6.70;;;3.13;;
76107;SDS011;64834;52.516;10.528;2023-05-19T05:28:59;7.18;;;2.60;;
76107;SDS011;64834;52.516;10.528;2023-05-19T05:31:25;7.53;;;2.90;;
76107;SDS011;64834;52.516;10.528;2023-05-19T05:33:50;5.72;;;2.25;;
76107;SDS011;64834;52.516;10.528;2023-05-19T05:36:16;5.85;;;2.60;;
76107;SDS011;64834;52.516;10.528;2023-05-19T05:38:41;7.78;;;2.72;;
76107;SDS011;64834;52.516;10.528;2023-05-19T05:41:06;6.03;;;3.00;;
76107;SDS011;64834;52.516;10.528;2023-05-19T05:43:32;6.03;;;2.42;;
76107;SDS011;64834;52.516;10.528;2023-05-19T05:45:57;6.55;;;2.38;;
76107;SDS011;64834;52.516;10.528;2023-05-19T05:48:22;9.00;;;2.47;;
76107;SDS011;64834;52.516;10.528;2023-05-19T05:50:48;5.35;;;2.03;;
76107;SDS011;64834;52.516;10.528;2023-05-19T05:53:18;6.72;;;2.60;;
76107;SDS011;64834;52.516;10.528;2023-05-19T05:55:45;7.22;;;2.50;;
76107;SDS011;64834;52.516;10.528;2023-05-19T05:58:11;4.28;;;2.53;;
76107;SDS011;64834;52.516;10.528;2023-05-19T06:00:36;5.63;;;2.25;;
76107;SDS011;64834;52.516;10.528;2023-05-19T06:03:02;6.60;;;2.40;;
76107;SDS011;64834;52.516;10.528;2023-05-19T06:05:28;7.90;;;2.55;;
76107;SDS011;64834;52.516;10.528;2023-05-19T06:07:53;5.47;;;1.92;;
76107;SDS011;64834;52.516;10.528;2023-05-19T06:10:18;8.45;;;2.33;;
76107;SDS011;64834;52.516;10.528;2023-05-19T06:12:44;8.15;;;2.00;;
76107;SDS011;64834;52.516;10.528;2023-05-19T06:15:09;5.88;;;1.73;;
76107;SDS011;64834;52.516;10.528;2023-05-19T06:17:35;6.50;;;2.08;;
76107;SDS011;64834;52.516;10.528;2023-05-19T06:20:01;4.40;;;2.08;;
76107;SDS011;64834;52.516;10.528;2023-05-19T06:22:26;4.28;;;2.05;;
76107;SDS011;64834;52.516;10.528;2023-05-19T06:24:52;5.13;;;1.88;;
76107;SDS011;64834;52.516;10.528;2023-05-19T06:27:17;5.30;;;1.85;;
76107;SDS011;64834;52.516;10.528;2023-05-19T06:29:43;4.85;;;1.92;;
76107;SDS011;64834;52.516;10.528;2023-05-19T06:32:08;6.47;;;2.03;;
76107;SDS011;64834;52.516;10.528;2023-05-19T06:34:33;5.75;;;1.73;;
76107;SDS011;64834;52.516;10.528;2023-05-19T06:36:59;6.15;;;1.92;;
76107;SDS011;64834;52.516;10.528;2023-05-19T06:39:26;4.70;;;1.98;;
76107;SDS011;64834;52.516;10.528;2023-05-19T06:41:51;5.13;;;2.00;;
76107;SDS011;64834;52.516;10.528;2023-05-19T06:44:16;6.82;;;1.75;;
76107;SDS011;64834;52.516;10.528;2023-05-19T06:46:42;5.32;;;1.58;;
76107;SDS011;64834;52.516;10.528;2023-05-19T06:49:08;3.70;;;1.83;;
76107;SDS011;64834;52.516;10.528;2023-05-19T06:51:33;6.88;;;2.05;;
76107;SDS011;64834;52.516;10.528;2023-05-19T06:53:59;5.47;;;1.55;;
76107;SDS011;64834;52.516;10.528;2023-05-19T06:56:24;7.40;;;2.33;;
76107;SDS011;64834;52.516;10.528;2023-05-19T06:58:50;8.20;;;1.73;;
76107;SDS011;64834;52.516;10.528;2023-05-19T07:01:15;7.55;;;2.05;;
76107;SDS011;64834;52.516;10.528;2023-05-19T07:03:40;5.47;;;1.65;;
76107;SDS011;64834;52.516;10.528;2023-05-19T07:06:06;4.53;;;1.50;;
76107;SDS011;64834;52.516;10.528;2023-05-19T07:08:31;7.28;;;1.83;;
76107;SDS011;64834;52.516;10.528;2023-05-19T07:10:56;3.90;;;1.48;;
76107;SDS011;64834;52.516;10.528;2023-05-19T07:13:22;4.35;;;1.70;;
76107;SDS011;64834;52.516;10.528;2023-05-19T07:15:47;6.53;;;1.50;;
76107;SDS011;64834;52.516;10.528;2023-05-19T07:18:19;4.93;;;1.70;;
76107;SDS011;64834;52.516;10.528;2023-05-19T07:20:45;6.50;;;1.48;;
76107;SDS011;64834;52.516;10.528;2023-05-19T07:23:10;5.60;;;1.50;;
76107;SDS011;64834;52.516;10.528;2023-05-19T07:25:35;5.57;;;1.80;;
76107;SDS011;64834;52.516;10.528;2023-05-19T07:28:01;7.47;;;1.52;;
76107;SDS011;64834;52.516;10.528;2023-05-19T07:30:26;7.28;;;1.60;;
76107;SDS011;64834;52.516;10.528;2023-05-19T07:32:52;3.03;;;1.10;;
76107;SDS011;64834;52.516;10.528;2023-05-19T07:35:18;3.60;;;1.40;;
76107;SDS011;64834;52.516;10.528;2023-05-19T07:37:44;4.28;;;1.27;;
76107;SDS011;64834;52.516;10.528;2023-05-19T07:40:09;5.70;;;1.60;;
76107;SDS011;64834;52.516;10.528;2023-05-19T07:42:35;3.95;;;1.20;;
76107;SDS011;64834;52.516;10.528;2023-05-19T07:45:00;7.90;;;1.83;;
76107;SDS011;64834;52.516;10.528;2023-05-19T07:47:27;4.55;;;1.30;;
76107;SDS011;64834;52.516;10.528;2023-05-19T07:49:52;3.63;;;0.95;;
76107;SDS011;64834;52.516;10.528;2023-05-19T07:52:17;4.90;;;1.60;;
76107;SDS011;64834;52.516;10.528;2023-05-19T07:54:43;4.47;;;1.30;;
76107;SDS011;64834;52.516;10.528;2023-05-19T07:57:09;4.78;;;1.13;;
76107;SDS011;64834;52.516;10.528;2023-05-19T07:59:34;3.83;;;0.90;;
76107;SDS011;64834;52.516;10.528;2023-05-19T08:02:00;4.25;;;1.33;;
76107;SDS011;64834;52.516;10.528;2023-05-19T08:04:25;3.40;;;1.42;;
76107;SDS011;64834;52.516;10.528;2023-05-19T08:06:50;5.32;;;1.40;;
76107;SDS011;64834;52.516;10.528;2023-05-19T08:09:16;5.78;;;1.23;;
76107;SDS011;64834;52.516;10.528;2023-05-19T08:11:42;4.00;;;1.40;;
76107;SDS011;64834;52.516;10.528;2023-05-19T08:14:08;3.08;;;1.10;;
76107;SDS011;64834;52.516;10.528;2023-05-19T08:16:34;3.92;;;1.15;;
76107;SDS011;64834;52.516;10.528;2023-05-19T08:19:00;5.03;;;1.42;;
76107;SDS011;64834;52.516;10.528;2023-05-19T08:21:28;4.53;;;1.63;;
76107;SDS011;64834;52.516;10.528;2023-05-19T08:23:53;5.55;;;1.20;;
76107;SDS011;64834;52.516;10.528;2023-05-19T08:26:18;3.72;;;1.20;;
76107;SDS011;64834;52.516;10.528;2023-05-19T08:28:44;4.88;;;1.27;;
76107;SDS011;64834;52.516;10.528;2023-05-19T08:31:09;3.15;;;1.10;;
76107;SDS011;64834;52.516;10.528;2023-05-19T08:33:34;3.42;;;0.95;;
76107;SDS011;64834;52.516;10.528;2023-05-19T08:36:00;4.32;;;1.45;;
76107;SDS011;64834;52.516;10.528;2023-05-19T08:38:25;3.35;;;1.30;;
76107;SDS011;64834;52.516;10.528;2023-05-19T08:40:50;4.75;;;1.27;;
76107;SDS011;64834;52.516;10.528;2023-05-19T08:43:16;3.38;;;1.02;;
76107;SDS011;64834;52.516;10.528;2023-05-19T08:45:42;3.55;;;1.10;;
76107;SDS011;64834;52.516;10.528;2023-05-19T08:48:10;3.47;;;0.90;;
76107;SDS011;64834;52.516;10.528;2023-05-19T08:50:38;4.22;;;1.25;;
76107;SDS011;64834;52.516;10.528;2023-05-19T08:53:13;4.38;;;1.30;;
76107;SDS011;64834;52.516;10.528;2023-05-19T08:55:51;3.53;;;1.40;;
76107;SDS011;64834;52.516;10.528;2023-05-19T08:58:25;4.25;;;1.38;;
76107;SDS011;64834;52.516;10.528;2023-05-19T09:00:52;5.40;;;0.98;;
76107;SDS011;64834;52.516;10.528;2023-05-19T09:03:17;3.10;;;1.25;;
76107;SDS011;64834;52.516;10.528;2023-05-19T09:05:43;3.75;;;1.15;;
76107;SDS011;64834;52.516;10.528;2023-05-19T09:08:10;5.00;;;1.73;;
76107;SDS011;64834;52.516;10.528;2023-05-19T09:10:35;4.20;;;1.13;;
76107;SDS011;64834;52.516;10.528;2023-05-19T09:13:00;3.95;;;1.35;;
76107;SDS011;64834;52.516;10.528;2023-05-19T09:15:26;4.07;;;1.60;;
76107;SDS011;64834;52.516;10.528;2023-05-19T09:18:13;3.63;;;1.30;;
76107;SDS011;64834;52.516;10.528;2023-05-19T09:20:39;3.58;;;1.30;;
76107;SDS011;64834;52.516;10.528;2023-05-19T09:23:06;3.13;;;1.42;;
76107;SDS011;64834;52.516;10.528;2023-05-19T09:25:32;3.55;;;1.13;;
76107;SDS011;64834;52.516;10.528;2023-05-19T09:27:58;3.33;;;1.15;;
76107;SDS011;64834;52.516;10.528;2023-05-19T09:30:23;2.13;;;1.05;;
76107;SDS011;64834;52.516;10.528;2023-05-19T09:32:49;2.95;;;0.88;;
76107;SDS011;64834;52.516;10.528;2023-05-19T09:35:15;3.15;;;1.20;;
76107;SDS011;64834;52.516;10.528;2023-05-19T09:37:41;2.50;;;0.80;;
76107;SDS011;64834;52.516;10.528;2023-05-19T09:40:08;2.47;;;1.00;;
76107;SDS011;64834;52.516;10.528;2023-05-19T09:42:35;2.58;;;1.02;;
76107;SDS011;64834;52.516;10.528;2023-05-19T09:45:02;4.53;;;1.00;;
76107;SDS011;64834;52.516;10.528;2023-05-19T09:47:32;2.45;;;0.88;;
76107;SDS011;64834;52.516;10.528;2023-05-19T09:50:07;4.00;;;1.08;;
76107;SDS011;64834;52.516;10.528;2023-05-19T09:52:35;4.80;;;1.48;;
76107;SDS011;64834;52.516;10.528;2023-05-19T09:55:01;2.67;;;1.00;;
76107;SDS011;64834;52.516;10.528;2023-05-19T09:57:33;3.55;;;0.90;;
76107;SDS011;64834;52.516;10.528;2023-05-19T10:00:05;3.00;;;1.10;;
76107;SDS011;64834;52.516;10.528;2023-05-19T10:02:44;2.30;;;0.90;;
76107;SDS011;64834;52.516;10.528;2023-05-19T10:05:14;2.85;;;0.90;;
76107;SDS011;64834;52.516;10.528;2023-05-19T10:07:48;4.03;;;1.02;;
76107;SDS011;64834;52.516;10.528;2023-05-19T10:10:16;3.38;;;0.93;;
76107;SDS011;64834;52.516;10.528;2023-05-19T10:12:44;3.25;;;0.82;;
76107;SDS011;64834;52.516;10.528;2023-05-19T10:15:10;1.67;;;0.88;;
76107;SDS011;64834;52.516;10.528;2023-05-19T10:17:40;1.80;;;1.00;;
76107;SDS011;64834;52.516;10.528;2023-05-19T10:20:07;7.15;;;1.00;;
76107;SDS011;64834;52.516;10.528;2023-05-19T10:22:37;3.38;;;0.90;;
76107;SDS011;64834;52.516;10.528;2023-05-19T10:25:04;3.17;;;1.00;;
76107;SDS011;64834;52.516;10.528;2023-05-19T10:27:30;2.58;;;0.80;;
76107;SDS011;64834;52.516;10.528;2023-05-19T10:29:57;4.05;;;0.70;;
76107;SDS011;64834;52.516;10.528;2023-05-19T10:32:27;2.20;;;0.80;;
76107;SDS011;64834;52.516;10.528;2023-05-19T10:38:04;2.90;;;0.68;;
76107;SDS011;64834;52.516;10.528;2023-05-19T10:46:13;3.30;;;0.70;;
76107;SDS011;64834;52.516;10.528;2023-05-19T10:48:38;3.88;;;1.00;;
76107;SDS011;64834;52.516;10.528;2023-05-19T10:51:08;2.17;;;0.80;;
76107;SDS011;64834;52.516;10.528;2023-05-19T10:53:37;1.65;;;0.70;;
76107;SDS011;64834;52.516;10.528;2023-05-19T10:56:05;3.67;;;0.98;;
76107;SDS011;64834;52.516;10.528;2023-05-19T10:58:35;5.20;;;0.75;;
76107;SDS011;64834;52.516;10.528;2023-05-19T11:01:13;2.30;;;0.95;;
76107;SDS011;64834;52.516;10.528;2023-05-19T11:03:49;3.72;;;0.80;;
76107;SDS011;64834;52.516;10.528;2023-05-19T11:09:01;3.28;;;0.60;;
76107;SDS011;64834;52.516;10.528;2023-05-19T11:11:43;4.80;;;0.88;;
76107;SDS011;64834;52.516;10.528;2023-05-19T11:14:08;2.40;;;0.90;;
76107;SDS011;64834;52.516;10.528;2023-05-19T11:19:01;3.33;;;0.77;;
76107;SDS011;64834;52.516;10.528;2023-05-19T11:27:22;2.78;;;0.75;;
76107;SDS011;64834;52.516;10.528;2023-05-19T11:29:50;2.45;;;1.00;;
76107;SDS011;64834;52.516;10.528;2023-05-19T11:32:16;4.65;;;0.85;;
76107;SDS011;64834;52.516;10.528;2023-05-19T11:34:43;3.80;;;0.60;;
76107;SDS011;64834;52.516;10.528;2023-05-19T11:37:09;2.95;;;0.80;;
76107;SDS011;64834;52.516;10.528;2023-05-19T11:39:35;2.53;;;0.73;;
76107;SDS011;64834;52.516;10.528;2023-05-19T11:42:01;2.42;;;0.70;;
76107;SDS011;64834;52.516;10.528;2023-05-19T11:44:26;2.45;;;0.82;;
76107;SDS011;64834;52.516;10.528;2023-05-19T11:46:52;3.65;;;0.70;;
76107;SDS011;64834;52.516;10.528;2023-05-19T11:49:17;2.20;;;0.57;;
76107;SDS011;64834;52.516;10.528;2023-05-19T11:51:43;2.45;;;0.65;;
76107;SDS011;64834;52.516;10.528;2023-05-19T11:54:09;2.78;;;0.88;;
76107;SDS011;64834;52.516;10.528;2023-05-19T11:56:38;3.50;;;0.70;;
76107;SDS011;64834;52.516;10.528;2023-05-19T11:59:05;2.47;;;0.70;;
76107;SDS011;64834;52.516;10.528;2023-05-19T12:01:30;2.95;;;0.93;;
76107;SDS011;64834;52.516;10.528;2023-05-19T12:03:57;2.28;;;0.80;;
76107;SDS011;64834;52.516;10.528;2023-05-19T12:06:22;4.43;;;0.90;;
76107;SDS011;64834;52.516;10.528;2023-05-19T12:08:50;2.75;;;0.70;;
76107;SDS011;64834;52.516;10.528;2023-05-19T12:11:16;2.17;;;0.85;;
76107;SDS011;64834;52.516;10.528;2023-05-19T12:13:43;1.77;;;0.70;;
76107;SDS011;64834;52.516;10.528;2023-05-19T12:16:08;1.35;;;0.73;;
76107;SDS011;64834;52.516;10.528;2023-05-19T12:18:37;1.92;;;0.70;;
76107;SDS011;64834;52.516;10.528;2023-05-19T12:21:03;3.05;;;0.80;;
76107;SDS011;64834;52.516;10.528;2023-05-19T12:23:29;1.67;;;0.80;;
76107;SDS011;64834;52.516;10.528;2023-05-19T12:25:58;1.52;;;0.80;;
76107;SDS011;64834;52.516;10.528;2023-05-19T12:28:24;3.30;;;1.00;;
76107;SDS011;64834;52.516;10.528;2023-05-19T12:30:49;3.20;;;0.80;;
76107;SDS011;64834;52.516;10.528;2023-05-19T12:33:19;3.17;;;0.68;;
76107;SDS011;64834;52.516;10.528;2023-05-19T12:35:46;2.30;;;0.77;;
76107;SDS011;64834;52.516;10.528;2023-05-19T12:38:13;1.88;;;0.52;;
76107;SDS011;64834;52.516;10.528;2023-05-19T12:40:39;3.97;;;0.60;;
76107;SDS011;64834;52.516;10.528;2023-05-19T12:43:06;2.50;;;0.82;;
76107;SDS011;64834;52.516;10.528;2023-05-19T12:45:34;2.03;;;0.70;;
76107;SDS011;64834;52.516;10.528;2023-05-19T12:48:04;2.83;;;0.73;;
76107;SDS011;64834;52.516;10.528;2023-05-19T12:50:35;2.25;;;0.70;;
76107;SDS011;64834;52.516;10.528;2023-05-19T12:53:01;2.03;;;0.50;;
76107;SDS011;64834;52.516;10.528;2023-05-19T12:55:27;2.60;;;0.60;;
76107;SDS011;64834;52.516;10.528;2023-05-19T12:57:52;2.88;;;0.85;;
76107;SDS011;64834;52.516;10.528;2023-05-19T13:00:24;1.67;;;0.63;;
76107;SDS011;64834;52.516;10.528;2023-05-19T13:03:01;1.83;;;0.60;;
76107;SDS011;64834;52.516;10.528;2023-05-19T13:08:03;2.20;;;0.82;;
76107;SDS011;64834;52.516;10.528;2023-05-19T13:10:30;3.65;;;0.80;;
76107;SDS011;64834;52.516;10.528;2023-05-19T13:12:56;3.20;;;0.82;;
76107;SDS011;64834;52.516;10.528;2023-05-19T13:17:50;1.58;;;0.60;;
76107;SDS011;64834;52.516;10.528;2023-05-19T13:20:16;2.17;;;0.88;;
76107;SDS011;64834;52.516;10.528;2023-05-19T13:22:41;2.20;;;0.80;;
76107;SDS011;64834;52.516;10.528;2023-05-19T13:25:07;1.63;;;0.60;;
76107;SDS011;64834;52.516;10.528;2023-05-19T13:27:33;3.50;;;0.90;;
76107;SDS011;64834;52.516;10.528;2023-05-19T13:29:59;2.40;;;0.65;;
76107;SDS011;64834;52.516;10.528;2023-05-19T13:32:24;2.67;;;0.73;;
76107;SDS011;64834;52.516;10.528;2023-05-19T13:34:50;1.88;;;0.65;;
76107;SDS011;64834;52.516;10.528;2023-05-19T13:37:15;2.22;;;0.77;;
76107;SDS011;64834;52.516;10.528;2023-05-19T13:39:40;4.57;;;0.90;;
76107;SDS011;64834;52.516;10.528;2023-05-19T13:42:06;2.95;;;0.82;;
76107;SDS011;64834;52.516;10.528;2023-05-19T13:44:32;2.42;;;0.60;;
76107;SDS011;64834;52.516;10.528;2023-05-19T13:46:57;2.70;;;0.90;;
76107;SDS011;64834;52.516;10.528;2023-05-19T13:49:23;2.53;;;0.80;;
76107;SDS011;64834;52.516;10.528;2023-05-19T13:51:48;3.00;;;0.75;;
76107;SDS011;64834;52.516;10.528;2023-05-19T13:54:14;3.03;;;0.90;;
76107;SDS011;64834;52.516;10.528;2023-05-19T13:56:39;2.13;;;0.63;;
76107;SDS011;64834;52.516;10.528;2023-05-19T13:59:04;1.83;;;0.68;;
76107;SDS011;64834;52.516;10.528;2023-05-19T14:01:30;2.53;;;0.77;;
76107;SDS011;64834;52.516;10.528;2023-05-19T14:03:55;2.85;;;0.73;;
76107;SDS011;64834;52.516;10.528;2023-05-19T14:06:21;2.42;;;0.70;;
76107;SDS011;64834;52.516;10.528;2023-05-19T14:08:46;3.83;;;0.90;;
76107;SDS011;64834;52.516;10.528;2023-05-19T14:11:18;1.33;;;0.68;;
76107;SDS011;64834;52.516;10.528;2023-05-19T14:13:44;2.20;;;0.70;;
76107;SDS011;64834;52.516;10.528;2023-05-19T14:16:10;2.08;;;0.85;;
76107;SDS011;64834;52.516;10.528;2023-05-19T14:18:35;2.53;;;0.93;;
76107;SDS011;64834;52.516;10.528;2023-05-19T14:21:01;1.13;;;0.50;;
76107;SDS011;64834;52.516;10.528;2023-05-19T14:23:26;2.35;;;0.70;;
76107;SDS011;64834;52.516;10.528;2023-05-19T14:25:53;2.28;;;0.60;;
76107;SDS011;64834;52.516;10.528;2023-05-19T14:28:18;3.53;;;0.68;;
76107;SDS011;64834;52.516;10.528;2023-05-19T14:30:43;4.85;;;0.60;;
76107;SDS011;64834;52.516;10.528;2023-05-19T14:33:08;2.78;;;0.75;;
76107;SDS011;64834;52.516;10.528;2023-05-19T14:35:34;2.80;;;0.65;;
76107;SDS011;64834;52.516;10.528;2023-05-19T14:37:59;2.45;;;0.70;;
76107;SDS011;64834;52.516;10.528;2023-05-19T14:40:24;1.77;;;0.70;;
76107;SDS011;64834;52.516;10.528;2023-05-19T14:42:50;2.88;;;0.60;;
76107;SDS011;64834;52.516;10.528;2023-05-19T14:45:15;2.75;;;0.82;;
76107;SDS011;64834;52.516;10.528;2023-05-19T14:47:40;3.13;;;0.85;;
76107;SDS011;64834;52.516;10.528;2023-05-19T14:50:06;2.10;;;0.63;;
76107;SDS011;64834;52.516;10.528;2023-05-19T14:52:31;1.75;;;0.73;;
76107;SDS011;64834;52.516;10.528;2023-05-19T14:54:56;2.53;;;0.70;;
76107;SDS011;64834;52.516;10.528;2023-05-19T14:57:22;2.60;;;0.68;;
76107;SDS011;64834;52.516;10.528;2023-05-19T14:59:47;2.20;;;0.77;;
76107;SDS011;64834;52.516;10.528;2023-05-19T15:02:12;2.75;;;0.57;;
76107;SDS011;64834;52.516;10.528;2023-05-19T15:04:38;3.22;;;0.70;;
76107;SDS011;64834;52.516;10.528;2023-05-19T15:07:03;1.88;;;0.68;;
76107;SDS011;64834;52.516;10.528;2023-05-19T15:09:28;2.75;;;0.90;;
76107;SDS011;64834;52.516;10.528;2023-05-19T15:11:54;2.28;;;0.73;;
76107;SDS011;64834;52.516;10.528;2023-05-19T15:14:19;4.25;;;1.00;;